createdAt,value
2018-06-28T00:00:27.136Z,10.50
2018-06-28T00:02:59.464Z,10.50
2018-06-28T00:05:27.879Z,10.50
2018-06-28T00:07:56.286Z,10.50
2018-06-28T00:10:24.733Z,10.50
2018-06-28T00:12:53.117Z,10.60
2018-06-28T00:15:21.551Z,10.60
2018-06-28T00:17:50.251Z,10.60
2018-06-28T00:20:18.909Z,10.70
2018-06-28T00:22:47.528Z,10.70
2018-06-28T00:25:16.124Z,10.80
2018-06-28T00:27:44.798Z,10.90
2018-06-28T00:30:13.901Z,10.90
2018-06-28T00:32:42.791Z,11.00
2018-06-28T00:35:12.608Z,11.00
2018-06-28T00:37:41.936Z,11.10
2018-06-28T00:40:11.400Z,11.20
2018-06-28T00:42:39.755Z,11.40
2018-06-28T00:45:08.559Z,11.40
2018-06-28T00:47:37.109Z,11.40
2018-06-28T00:50:05.629Z,11.50
2018-06-28T00:52:34.096Z,11.40
2018-06-28T00:55:02.537Z,11.40
2018-06-28T00:57:30.929Z,11.30
2018-06-28T00:59:59.451Z,11.30
2018-06-28T01:02:27.865Z,11.30
2018-06-28T01:04:56.285Z,11.40
2018-06-28T01:07:24.692Z,11.40
2018-06-28T01:09:53.198Z,11.40
2018-06-28T01:12:21.738Z,11.40
2018-06-28T01:14:50.243Z,11.50
2018-06-28T01:17:18.967Z,11.60
2018-06-28T01:19:47.521Z,11.60
2018-06-28T01:22:16.040Z,11.70
2018-06-28T01:24:44.772Z,11.80
2018-06-28T01:27:13.705Z,11.80
2018-06-28T01:29:42.554Z,11.80
2018-06-28T01:32:11.041Z,11.80
2018-06-28T01:34:39.508Z,11.70
2018-06-28T01:37:08.377Z,11.70
2018-06-28T01:39:36.875Z,11.70
2018-06-28T01:42:33.674Z,11.80
2018-06-28T01:45:02.176Z,11.80
2018-06-28T01:47:30.694Z,11.80
2018-06-28T01:49:59.057Z,11.80
2018-06-28T01:52:27.496Z,11.90
2018-06-28T01:54:55.836Z,11.90
2018-06-28T01:57:24.239Z,11.90
2018-06-28T02:00:10.276Z,11.90
2018-06-28T02:02:38.716Z,12.00
2018-06-28T02:05:07.093Z,12.00
2018-06-28T02:07:35.586Z,12.00
2018-06-28T02:10:04.517Z,12.00
2018-06-28T02:12:32.992Z,12.00
2018-06-28T02:15:01.431Z,12.00
2018-06-28T02:17:29.847Z,12.20
2018-06-28T02:19:58.306Z,12.20
2018-06-28T02:22:26.788Z,12.10
2018-06-28T02:24:55.187Z,12.10
2018-06-28T02:27:41.017Z,12.00
2018-06-28T02:30:09.492Z,12.00
2018-06-28T02:32:38.214Z,11.90
2018-06-28T02:35:06.737Z,12.00
2018-06-28T02:37:35.568Z,12.00
2018-06-28T02:40:04.697Z,12.00
2018-06-28T02:42:42.801Z,12.00
2018-06-28T02:45:11.679Z,11.90
2018-06-28T02:47:40.350Z,11.90
2018-06-28T02:52:37.112Z,11.90
2018-06-28T02:55:05.731Z,11.80
2018-06-28T02:57:34.287Z,11.80
2018-06-28T03:00:02.840Z,11.80
2018-06-28T03:02:31.373Z,11.80
2018-06-28T03:04:59.867Z,11.80
2018-06-28T03:07:28.312Z,11.80
2018-06-28T03:09:56.828Z,11.80
2018-06-28T03:12:25.274Z,11.80
2018-06-28T03:14:53.739Z,11.80
2018-06-28T03:17:22.214Z,11.80
2018-06-28T03:19:50.652Z,11.80
2018-06-28T03:22:19.169Z,11.80
2018-06-28T03:24:47.723Z,11.80
2018-06-28T03:27:16.253Z,11.80
2018-06-28T03:29:45.739Z,11.80
2018-06-28T03:32:14.436Z,11.80
2018-06-28T03:34:43.033Z,11.80
2018-06-28T03:37:11.668Z,11.80
2018-06-28T03:39:40.216Z,11.90
2018-06-28T03:42:08.714Z,11.90
2018-06-28T03:44:37.089Z,11.90
2018-06-28T03:47:05.609Z,11.90
2018-06-28T03:49:34.143Z,11.90
2018-06-28T03:52:02.460Z,12.00
2018-06-28T03:54:31.029Z,12.00
2018-06-28T03:56:59.572Z,12.10
2018-06-28T03:59:27.975Z,12.20
2018-06-28T04:01:56.395Z,12.30
2018-06-28T04:04:24.813Z,12.30
2018-06-28T04:06:53.338Z,12.30
2018-06-28T04:09:23.339Z,12.30
2018-06-28T04:11:51.817Z,12.40
2018-06-28T04:14:20.275Z,12.50
2018-06-28T04:16:48.949Z,12.60
2018-06-28T04:19:17.518Z,12.70
2018-06-28T04:21:46.133Z,12.80
2018-06-28T04:24:14.693Z,12.90
2018-06-28T04:26:43.616Z,13.00
2018-06-28T04:29:12.553Z,13.30
2018-06-28T04:31:44.090Z,13.40
2018-06-28T04:34:12.865Z,13.50
2018-06-28T04:36:41.465Z,13.60
2018-06-28T04:39:11.668Z,13.70
2018-06-28T04:41:40.560Z,13.70
2018-06-28T04:44:08.990Z,13.60
2018-06-28T04:46:37.513Z,13.50
2018-06-28T04:49:06.066Z,13.40
2018-06-28T04:51:34.501Z,13.40
2018-06-28T04:54:03.171Z,13.40
2018-06-28T04:56:31.618Z,13.40
2018-06-28T04:59:05.983Z,13.40
2018-06-28T05:01:34.368Z,13.30
2018-06-28T05:04:02.835Z,13.40
2018-06-28T05:06:31.624Z,13.50
2018-06-28T05:09:00.181Z,13.60
2018-06-28T05:11:28.613Z,13.60
2018-06-28T05:14:09.426Z,13.60
2018-06-28T05:16:38.031Z,13.70
2018-06-28T05:19:07.005Z,13.70
2018-06-28T05:21:35.897Z,13.70
2018-06-28T05:24:04.321Z,13.70
2018-06-28T05:26:32.813Z,13.80
2018-06-28T05:29:01.240Z,13.90
2018-06-28T05:31:29.716Z,14.10
2018-06-28T05:33:58.282Z,14.20
2018-06-28T05:36:26.662Z,14.20
2018-06-28T05:38:55.154Z,14.20
2018-06-28T05:41:23.816Z,14.10
2018-06-28T05:43:52.192Z,14.20
2018-06-28T05:46:25.981Z,14.20
2018-06-28T05:48:54.467Z,14.20
2018-06-28T05:51:22.912Z,14.10
2018-06-28T05:53:51.496Z,14.00
2018-06-28T05:56:21.193Z,14.00
2018-06-28T05:58:49.705Z,14.20
2018-06-28T06:01:18.164Z,14.30
2018-06-28T06:03:46.898Z,14.30
2018-06-28T06:06:15.824Z,14.50
2018-06-28T06:08:44.420Z,14.50
2018-06-28T06:11:13.196Z,14.40
2018-06-28T06:13:46.259Z,14.60
2018-06-28T06:16:14.855Z,14.40
2018-06-28T06:18:43.583Z,14.30
2018-06-28T06:21:12.657Z,14.20
2018-06-28T06:23:42.653Z,14.30
2018-06-28T06:26:11.752Z,14.30
2018-06-28T06:28:40.244Z,14.40
2018-06-28T06:31:08.828Z,14.50
2018-06-28T06:33:37.409Z,14.60
2018-06-28T06:36:06.295Z,14.80
2018-06-28T06:38:35.015Z,14.80
2018-06-28T06:41:03.755Z,14.80
2018-06-28T06:46:04.136Z,14.80
2018-06-28T06:48:32.591Z,14.80
2018-06-28T06:51:01.190Z,14.80
2018-06-28T06:53:29.624Z,14.80
2018-06-28T06:55:58.158Z,14.80
2018-06-28T06:58:26.647Z,14.90
2018-06-28T07:00:55.268Z,15.00
2018-06-28T07:03:23.772Z,15.20
2018-06-28T07:05:52.539Z,15.10
2018-06-28T07:08:21.256Z,15.20
2018-06-28T07:10:50.089Z,15.20
2018-06-28T07:13:18.788Z,15.10
2018-06-28T07:15:47.594Z,14.90
2018-06-28T07:18:16.189Z,15.00
2018-06-28T07:20:44.795Z,15.10
2018-06-28T07:23:13.628Z,14.90
2018-06-28T07:25:42.481Z,15.20
2018-06-28T07:28:11.495Z,15.20
2018-06-28T07:30:40.288Z,15.40
2018-06-28T07:33:09.232Z,15.60
2018-06-28T07:35:43.375Z,15.70
2018-06-28T07:38:12.439Z,15.80
2018-06-28T07:40:41.487Z,15.80
2018-06-28T07:43:11.063Z,15.80
2018-06-28T07:45:41.302Z,16.00
2018-06-28T07:48:10.436Z,16.20
2018-06-28T07:50:39.401Z,16.20
2018-06-28T07:53:08.582Z,16.10
2018-06-28T07:55:37.396Z,15.90
2018-06-28T07:58:05.978Z,15.80
2018-06-28T08:00:34.631Z,15.90
2018-06-28T08:03:03.227Z,15.90
2018-06-28T08:05:31.936Z,16.10
2018-06-28T08:08:00.463Z,16.20
2018-06-28T08:10:28.940Z,16.00
2018-06-28T08:12:57.716Z,15.90
2018-06-28T08:15:26.339Z,16.00
2018-06-28T08:17:54.920Z,16.10
2018-06-28T08:20:23.579Z,16.30
2018-06-28T08:22:52.536Z,16.40
2018-06-28T08:25:21.554Z,16.60
2018-06-28T08:27:50.536Z,16.90
2018-06-28T08:30:19.680Z,16.80
2018-06-28T08:32:49.222Z,17.00
2018-06-28T08:35:18.191Z,17.10
2018-06-28T08:37:47.342Z,16.80
2018-06-28T08:40:16.631Z,16.50
2018-06-28T08:42:45.893Z,16.40
2018-06-28T08:45:14.974Z,16.30
2018-06-28T08:47:44.470Z,16.00
2018-06-28T08:50:16.141Z,16.00
2018-06-28T08:52:45.584Z,15.90
2018-06-28T08:55:18.292Z,15.90
2018-06-28T08:57:47.185Z,16.00
2018-06-28T09:00:15.725Z,16.20
2018-06-28T09:02:44.584Z,16.30
2018-06-28T09:05:14.024Z,16.30
2018-06-28T09:07:43.073Z,16.50
2018-06-28T09:10:12.630Z,16.80
2018-06-28T09:12:41.219Z,16.70
2018-06-28T09:17:37.844Z,16.90
2018-06-28T09:20:07.128Z,17.00
2018-06-28T09:22:36.020Z,16.70
2018-06-28T09:25:04.656Z,16.70
2018-06-28T09:27:33.177Z,16.50
2018-06-28T09:30:01.613Z,16.40
2018-06-28T09:32:30.107Z,16.40
2018-06-28T09:34:58.530Z,16.30
2018-06-28T09:37:27.053Z,16.50
2018-06-28T09:39:55.642Z,16.70
2018-06-28T09:42:24.084Z,16.90
2018-06-28T09:44:52.585Z,17.00
2018-06-28T09:47:21.082Z,17.00
2018-06-28T09:49:49.771Z,17.00
2018-06-28T09:52:18.313Z,16.80
2018-06-28T09:54:46.916Z,16.60
2018-06-28T09:57:16.708Z,16.40
2018-06-28T09:59:45.528Z,16.40
2018-06-28T10:02:14.348Z,16.70
2018-06-28T10:04:43.081Z,16.90
2018-06-28T10:07:13.809Z,17.20
2018-06-28T10:09:42.559Z,17.60
2018-06-28T10:12:11.240Z,17.90
2018-06-28T10:14:39.727Z,17.70
2018-06-28T10:17:08.163Z,17.80
2018-06-28T10:19:36.928Z,17.80
2018-06-28T10:22:05.518Z,17.60
2018-06-28T10:24:34.075Z,17.50
2018-06-28T10:27:12.535Z,17.40
2018-06-28T10:29:41.280Z,17.30
2018-06-28T10:32:09.791Z,17.30
2018-06-28T10:34:38.174Z,17.10
2018-06-28T10:37:06.729Z,17.40
2018-06-28T10:39:35.428Z,17.60
2018-06-28T10:42:04.002Z,17.60
2018-06-28T10:44:32.408Z,17.50
2018-06-28T10:47:00.986Z,17.40
2018-06-28T10:49:29.612Z,17.30
2018-06-28T10:51:58.553Z,17.30
2018-06-28T10:54:27.284Z,17.30
2018-06-28T10:56:56.086Z,17.20
2018-06-28T10:59:24.553Z,17.40
2018-06-28T11:01:53.057Z,17.50
2018-06-28T11:04:21.778Z,17.40
2018-06-28T11:06:50.531Z,17.20
2018-06-28T11:09:19.168Z,17.40
2018-06-28T11:11:47.653Z,17.10
2018-06-28T11:14:16.367Z,16.80
2018-06-28T11:16:45.284Z,16.80
2018-06-28T11:19:14.542Z,16.80
2018-06-28T11:21:43.826Z,16.80
2018-06-28T11:24:13.429Z,16.60
2018-06-28T11:26:43.528Z,16.40
2018-06-28T11:29:13.003Z,16.30
2018-06-28T11:31:42.626Z,16.30
2018-06-28T11:34:11.659Z,16.20
2018-06-28T11:36:40.334Z,16.20
2018-06-28T11:39:10.967Z,16.20
2018-06-28T11:41:45.527Z,16.30
2018-06-28T11:44:14.391Z,16.30
2018-06-28T11:46:43.647Z,16.10
2018-06-28T11:49:13.202Z,15.90
2018-06-28T11:51:42.319Z,15.90
2018-06-28T11:54:11.885Z,16.00
2018-06-28T11:56:40.727Z,16.00
2018-06-28T11:59:09.189Z,16.10
2018-06-28T12:01:37.604Z,16.10
2018-06-28T12:04:06.191Z,16.10
2018-06-28T12:06:35.460Z,16.10
2018-06-28T12:09:06.230Z,16.10
2018-06-28T12:11:34.835Z,16.10
2018-06-28T12:14:03.508Z,16.10
2018-06-28T12:16:32.059Z,16.00
2018-06-28T12:19:10.716Z,16.10
2018-06-28T12:21:39.360Z,16.10
2018-06-28T12:24:07.846Z,16.00
2018-06-28T12:26:36.385Z,16.00
2018-06-28T12:29:05.064Z,16.00
2018-06-28T12:31:33.880Z,16.10
2018-06-28T12:34:02.482Z,16.10
2018-06-28T12:36:31.007Z,16.10
2018-06-28T12:39:01.627Z,16.10
2018-06-28T12:41:30.200Z,16.10
2018-06-28T12:47:39.562Z,16.10
2018-06-28T12:50:12.993Z,16.10
2018-06-28T12:52:49.096Z,16.00
2018-06-28T12:55:19.122Z,16.10
2018-06-28T12:57:48.444Z,16.10
2018-06-28T13:00:17.906Z,16.20
2018-06-28T13:02:46.784Z,16.40
2018-06-28T13:05:16.741Z,16.50
2018-06-28T13:07:45.932Z,16.40
2018-06-28T13:10:16.445Z,16.50
2018-06-28T13:12:45.214Z,16.40
2018-06-28T13:15:15.193Z,16.50
2018-06-28T13:17:44.064Z,16.50
2018-06-28T13:20:13.201Z,16.60
2018-06-28T13:22:42.050Z,16.60
2018-06-28T13:25:11.885Z,16.60
2018-06-28T13:27:40.980Z,16.60
2018-06-28T13:30:10.605Z,16.60
2018-06-28T13:32:39.451Z,16.50
2018-06-28T13:35:08.227Z,16.50
2018-06-28T13:37:36.864Z,16.50
2018-06-28T13:40:05.364Z,16.30
2018-06-28T13:42:33.841Z,16.20
2018-06-28T13:45:02.348Z,16.20
2018-06-28T13:47:30.968Z,16.10
2018-06-28T13:49:59.540Z,16.10
2018-06-28T13:52:28.076Z,16.10
2018-06-28T13:54:56.567Z,16.00
2018-06-28T13:57:25.035Z,16.00
2018-06-28T13:59:54.343Z,16.00
2018-06-28T14:02:22.808Z,16.00
2018-06-28T14:04:51.685Z,16.10
2018-06-28T14:07:20.572Z,16.10
2018-06-28T14:09:49.141Z,16.20
2018-06-28T14:12:17.743Z,16.10
2018-06-28T14:14:46.287Z,16.20
2018-06-28T14:17:14.978Z,16.20
2018-06-28T14:19:43.785Z,16.20
2018-06-28T14:22:12.904Z,16.10
2018-06-28T14:24:41.408Z,16.10
2018-06-28T14:27:09.982Z,16.10
2018-06-28T14:29:38.389Z,16.10
2018-06-28T14:32:07.171Z,16.00
2018-06-28T14:34:35.576Z,16.00
2018-06-28T14:37:04.187Z,15.90
2018-06-28T14:39:32.843Z,15.90
2018-06-28T14:42:01.559Z,15.90
2018-06-28T14:44:30.398Z,15.90
2018-06-28T14:46:59.290Z,15.90
2018-06-28T14:49:27.857Z,15.90
2018-06-28T14:51:56.382Z,16.00
2018-06-28T14:54:25.231Z,16.00
2018-06-28T14:56:53.838Z,16.00
2018-06-28T14:59:22.516Z,16.10
2018-06-28T15:01:50.983Z,16.10
2018-06-28T15:04:19.454Z,16.00
2018-06-28T15:06:50.226Z,16.00
2018-06-28T15:09:19.003Z,16.00
2018-06-28T15:11:47.921Z,16.00
2018-06-28T15:14:17.073Z,16.00
2018-06-28T15:16:45.595Z,16.00
2018-06-28T15:19:14.780Z,16.00
2018-06-28T15:21:43.893Z,16.00
2018-06-28T15:24:13.929Z,16.00
2018-06-28T15:26:42.701Z,16.00
2018-06-28T15:29:11.407Z,16.00
2018-06-28T15:31:40.079Z,16.00
2018-06-28T15:34:08.601Z,16.00
2018-06-28T15:36:37.785Z,16.00
2018-06-28T15:39:08.662Z,16.00
2018-06-28T15:41:37.661Z,15.90
2018-06-28T15:44:06.092Z,15.90
2018-06-28T15:46:34.657Z,15.90
2018-06-28T15:49:03.699Z,15.80
2018-06-28T15:51:32.211Z,15.70
2018-06-28T15:54:01.210Z,15.70
2018-06-28T15:56:29.863Z,15.60
2018-06-28T15:58:58.621Z,15.60
2018-06-28T16:01:27.217Z,15.60
2018-06-28T16:03:55.943Z,15.60
2018-06-28T16:06:24.351Z,15.60
2018-06-28T16:08:52.726Z,15.60
2018-06-28T16:13:49.522Z,15.60
2018-06-28T16:18:46.961Z,15.60
2018-06-28T16:21:15.779Z,15.60
2018-06-28T16:23:44.615Z,15.60
2018-06-28T16:26:13.695Z,15.60
2018-06-28T16:28:44.739Z,15.60
2018-06-28T16:31:14.509Z,15.60
2018-06-28T16:33:43.569Z,15.60
2018-06-28T16:36:12.103Z,15.60
2018-06-28T16:38:41.143Z,15.50
2018-06-28T16:41:09.868Z,15.50
2018-06-28T16:43:38.780Z,15.60
2018-06-28T16:46:07.555Z,15.70
2018-06-28T16:48:36.332Z,15.70
2018-06-28T16:51:04.997Z,15.70
2018-06-28T16:53:33.580Z,15.60
2018-06-28T16:56:02.157Z,15.70
2018-06-28T16:58:31.044Z,15.70
2018-06-28T17:00:59.760Z,15.70
2018-06-28T17:03:28.414Z,15.70
2018-06-28T17:05:56.941Z,15.70
2018-06-28T17:08:25.388Z,15.70
2018-06-28T17:10:54.107Z,15.70
2018-06-28T17:13:22.844Z,15.70
2018-06-28T17:16:10.874Z,15.70
2018-06-28T17:18:40.347Z,15.70
2018-06-28T17:21:08.826Z,15.60
2018-06-28T17:23:37.460Z,15.60
2018-06-28T17:26:06.293Z,15.60
2018-06-28T17:28:34.697Z,15.60
2018-06-28T17:31:03.173Z,15.70
2018-06-28T17:33:31.668Z,15.60
2018-06-28T17:36:00.304Z,15.60
2018-06-28T17:38:28.872Z,15.50
2018-06-28T17:40:57.411Z,15.60
2018-06-28T17:43:26.069Z,15.60
2018-06-28T17:45:55.029Z,15.50
2018-06-28T17:48:23.700Z,15.50
2018-06-28T17:50:52.439Z,15.50
2018-06-28T17:53:21.011Z,15.50
2018-06-28T17:55:50.062Z,15.50
2018-06-28T17:58:20.001Z,15.50
2018-06-28T18:00:51.068Z,15.50
2018-06-28T18:03:20.342Z,15.50
2018-06-28T18:05:49.771Z,15.50
2018-06-28T18:08:19.458Z,15.50
2018-06-28T18:10:48.976Z,15.50
2018-06-28T18:13:18.307Z,15.60
2018-06-28T18:15:49.027Z,15.50
2018-06-28T18:18:20.022Z,15.50
2018-06-28T18:20:48.818Z,15.50
2018-06-28T18:23:17.318Z,15.50
2018-06-28T18:25:45.905Z,15.50
2018-06-28T18:28:15.863Z,15.40
2018-06-28T18:30:44.894Z,15.40
2018-06-28T18:33:13.608Z,15.40
2018-06-28T18:38:14.093Z,15.40
2018-06-28T18:40:42.767Z,15.40
2018-06-28T18:43:11.536Z,15.40
2018-06-28T18:45:40.747Z,15.40
2018-06-28T18:48:09.770Z,15.30
2018-06-28T18:50:39.973Z,15.30
2018-06-28T18:53:08.539Z,15.30
2018-06-28T18:55:37.421Z,15.30
2018-06-28T18:58:05.879Z,15.30
2018-06-28T19:00:34.532Z,15.30
2018-06-28T19:03:03.254Z,15.30
2018-06-28T19:05:42.491Z,15.30
2018-06-28T19:08:11.368Z,15.30
2018-06-28T19:10:46.265Z,15.20
2018-06-28T19:13:14.960Z,15.30
2018-06-28T19:15:49.735Z,15.30
2018-06-28T19:18:18.929Z,15.30
2018-06-28T19:20:52.828Z,15.30
2018-06-28T19:23:27.686Z,15.30
2018-06-28T19:26:10.194Z,15.30
2018-06-28T19:28:40.725Z,15.20
2018-06-28T19:31:14.728Z,15.20
2018-06-28T19:33:43.723Z,15.20
2018-06-28T19:36:12.345Z,15.30
2018-06-28T19:38:46.053Z,15.20
2018-06-28T19:41:20.006Z,15.20
2018-06-28T19:43:48.488Z,15.20
2018-06-28T19:46:16.916Z,15.20
2018-06-28T19:48:45.633Z,15.20
2018-06-28T19:51:19.585Z,15.20
2018-06-28T19:53:48.179Z,15.20
2018-06-28T19:56:16.701Z,15.20
2018-06-28T19:58:45.416Z,15.20
2018-06-28T20:01:19.892Z,15.20
2018-06-28T20:03:53.729Z,15.20
2018-06-28T20:06:22.747Z,15.10
2018-06-28T20:08:56.850Z,15.10
2018-06-28T20:11:25.585Z,15.10
2018-06-28T20:13:59.314Z,15.10
2018-06-28T20:16:33.452Z,15.00
2018-06-28T20:19:07.350Z,15.00
2018-06-28T20:21:36.541Z,15.00
2018-06-28T20:24:05.437Z,15.00
2018-06-28T20:26:40.631Z,15.00
2018-06-28T20:29:17.372Z,15.00
2018-06-28T20:31:51.318Z,15.10
2018-06-28T20:34:20.105Z,15.10
2018-06-28T20:37:05.550Z,15.10
2018-06-28T20:39:34.297Z,15.10
2018-06-28T20:42:02.712Z,15.10
2018-06-28T20:44:38.052Z,15.10
2018-06-28T20:47:06.533Z,15.10
2018-06-28T20:49:35.255Z,15.10
2018-06-28T20:52:03.941Z,15.10
2018-06-28T20:54:32.520Z,15.10
2018-06-28T20:57:01.034Z,15.10
2018-06-28T20:59:34.535Z,15.10
2018-06-28T21:02:03.055Z,15.10
2018-06-28T21:04:31.528Z,15.10
2018-06-28T21:07:00.163Z,15.00
2018-06-28T21:09:28.517Z,15.10
2018-06-28T21:11:57.054Z,15.10
2018-06-28T21:14:25.805Z,15.10
2018-06-28T21:17:10.583Z,15.00
2018-06-28T21:19:38.960Z,15.00
2018-06-28T21:22:07.474Z,15.00
2018-06-28T21:24:36.022Z,15.00
2018-06-28T21:27:04.519Z,15.00
2018-06-28T21:29:33.364Z,15.00
2018-06-28T21:34:33.937Z,14.90
2018-06-28T21:37:02.361Z,15.00
2018-06-28T21:39:30.815Z,14.90
2018-06-28T21:41:59.312Z,14.90
2018-06-28T21:44:27.737Z,14.90
2018-06-28T21:46:56.206Z,14.90
2018-06-28T21:49:24.647Z,14.90
2018-06-28T21:51:53.187Z,14.90
2018-06-28T21:54:21.630Z,14.90
2018-06-28T21:59:31.823Z,14.90
2018-06-28T22:02:00.390Z,14.90
2018-06-28T22:04:28.794Z,14.90
2018-06-28T22:06:57.364Z,14.90
2018-06-28T22:09:25.835Z,14.90
2018-06-28T22:11:57.957Z,14.90
2018-06-28T22:14:26.427Z,14.90
2018-06-28T22:16:54.884Z,14.90
2018-06-28T22:19:23.348Z,14.90
2018-06-28T22:21:51.741Z,14.90
2018-06-28T22:24:20.287Z,14.90
2018-06-28T22:26:48.919Z,14.80
2018-06-28T22:29:18.401Z,14.80
2018-06-28T22:31:46.915Z,14.80
2018-06-28T22:34:15.524Z,14.80
2018-06-28T22:36:44.187Z,14.90
2018-06-28T22:39:13.883Z,14.90
2018-06-28T22:41:42.891Z,14.90
2018-06-28T22:44:11.457Z,14.90
2018-06-28T22:46:39.907Z,14.90
2018-06-28T22:49:08.427Z,14.90
2018-06-28T22:51:36.853Z,14.80
2018-06-28T22:54:05.391Z,14.90
2018-06-28T22:56:33.900Z,14.90
2018-06-28T22:59:02.417Z,14.90
2018-06-28T23:01:30.921Z,14.90
2018-06-28T23:03:59.291Z,14.80
2018-06-28T23:06:27.624Z,14.90
2018-06-28T23:08:56.090Z,14.80
2018-06-28T23:11:24.558Z,14.90
2018-06-28T23:13:52.904Z,14.90
2018-06-28T23:16:21.324Z,14.80
2018-06-28T23:18:49.840Z,14.80
2018-06-28T23:21:18.340Z,14.90
2018-06-28T23:23:46.816Z,14.90
2018-06-28T23:26:15.304Z,14.90
2018-06-28T23:28:44.012Z,14.90
2018-06-28T23:31:12.727Z,14.90
2018-06-28T23:33:41.285Z,14.90
2018-06-28T23:36:09.753Z,14.80
2018-06-28T23:38:38.303Z,14.80
2018-06-28T23:41:06.744Z,14.80
2018-06-28T23:43:35.227Z,14.80
2018-06-28T23:46:03.720Z,14.80
2018-06-28T23:48:32.208Z,14.80
2018-06-28T23:51:00.671Z,14.80
2018-06-28T23:53:29.079Z,14.80
2018-06-28T23:55:57.517Z,14.90
2018-06-28T23:58:25.894Z,14.80
